Time;durP1;ratioP1;P1;durP2;ratioP2;P2;SDS_P1;SDS_P2;PMS_P1;PMS_P2;Temp;Humidity;BMP_temperature;BMP_pressure;BME280_temperature;BME280_humidity;BME280_pressure;Samples;Min_cycle;Max_cycle;Signal;HPM_P1;HPM_P2
2022/07/22 00:02:00;;;;;;;41.67;39.58;;;;;;;24.57;39.74;102051.78;5062200;28;20033;-72
2022/07/22 00:04:25;;;;;;;44.10;41.75;;;;;;;24.56;39.99;102044.59;5053408;28;20354;-72
2022/07/22 00:06:50;;;;;;;42.58;40.47;;;;;;;24.55;39.85;102042.97;5055620;28;20032;-72
2022/07/22 00:09:16;;;;;;;42.55;40.22;;;;;;;24.55;39.96;102042.97;5068025;28;20469;-72
2022/07/22 00:11:41;;;;;;;41.47;39.35;;;;;;;24.53;39.60;102044.41;5063779;28;20084;-72
2022/07/22 00:14:07;;;;;;;41.03;39.03;;;;;;;24.53;39.86;102042.44;5056497;28;20037;-73
2022/07/22 00:16:32;;;;;;;41.28;39.08;;;;;;;24.52;40.06;102053.78;5053133;28;20370;-71
2022/07/22 00:18:58;;;;;;;40.85;38.75;;;;;;;24.52;39.79;102053.78;5053517;28;20404;-72
2022/07/22 00:21:23;;;;;;;43.20;40.83;;;;;;;24.50;39.92;102040.31;5052867;28;20033;-72
2022/07/22 00:23:49;;;;;;;41.17;39.08;;;;;;;24.50;39.89;102043.06;5070961;28;20044;-72
2022/07/22 00:26:14;;;;;;;42.42;40.35;;;;;;;24.49;39.58;102048.88;5056731;28;20025;-72
2022/07/22 00:28:39;;;;;;;40.63;38.47;;;;;;;24.49;39.90;102051.66;5052954;28;20049;-72
2022/07/22 00:31:06;;;;;;;41.80;39.60;;;;;;;24.47;40.12;102038.16;5053566;28;20051;-72
2022/07/22 00:33:31;;;;;;;44.20;41.95;;;;;;;24.47;40.06;102040.94;5060988;28;20066;-71
2022/07/22 00:35:57;;;;;;;44.42;42.13;;;;;;;24.45;40.13;102037.66;5070018;28;20113;-72
2022/07/22 00:38:22;;;;;;;41.10;39.00;;;;;;;24.44;39.77;102041.47;5053397;28;20142;-71
2022/07/22 00:40:47;;;;;;;41.13;39.03;;;;;;;24.44;39.98;102041.47;5067490;28;20086;-72
2022/07/22 00:43:13;;;;;;;41.65;39.47;;;;;;;24.44;39.73;102041.47;5065368;28;20028;-73
2022/07/22 00:45:39;;;;;;;43.92;41.65;;;;;;;24.43;39.87;102042.63;5059799;28;20037;-72
2022/07/22 00:48:04;;;;;;;43.63;41.33;;;;;;;24.42;39.73;102043.75;5071849;28;20028;-72
2022/07/22 00:50:30;;;;;;;43.10;40.88;;;;;;;24.40;39.51;102046.81;5071725;28;20052;-73
2022/07/22 00:52:55;;;;;;;42.28;40.28;;;;;;;24.40;39.65;102038.53;5066910;28;20029;-73
2022/07/22 00:55:21;;;;;;;43.85;41.42;;;;;;;24.40;39.69;102027.47;5062767;28;20033;-73
2022/07/22 00:57:46;;;;;;;42.45;40.35;;;;;;;24.40;39.68;102026.66;5052438;28;20033;-72
2022/07/22 01:00:16;;;;;;;43.00;40.90;;;;;;;24.38;40.16;102035.25;5051268;28;20068;-73
2022/07/22 01:02:42;;;;;;;43.58;41.17;;;;;;;24.38;39.70;102026.97;5055187;28;20073;-73
2022/07/22 01:05:08;;;;;;;42.50;40.22;;;;;;;24.37;39.79;102030.03;5064521;28;20028;-72
2022/07/22 01:07:33;;;;;;;43.20;40.83;;;;;;;24.36;39.52;102034.72;5067642;28;20032;-72
2022/07/22 01:09:59;;;;;;;41.60;39.30;;;;;;;24.35;40.07;102030.34;5062732;28;20033;-73
2022/07/22 01:12:24;;;;;;;42.15;39.75;;;;;;;24.34;40.19;102020.44;5066279;28;20132;-72
2022/07/22 01:14:49;;;;;;;43.17;40.67;;;;;;;24.34;40.00;102017.66;5064939;28;20404;-74
2022/07/22 01:17:15;;;;;;;43.70;41.40;;;;;;;24.34;39.52;102027.88;5062625;28;20033;-72
2022/07/22 01:19:40;;;;;;;44.10;41.80;;;;;;;24.34;39.91;102027.88;5067674;28;20036;-72
2022/07/22 01:22:06;;;;;;;42.05;39.85;;;;;;;24.32;40.19;102024.63;5064450;28;20044;-73
2022/07/22 01:24:32;;;;;;;42.33;39.72;;;;;;;24.31;40.01;102028.47;5065180;28;20044;-72
2022/07/22 01:26:58;;;;;;;41.20;39.17;;;;;;;24.30;39.75;102029.63;5066897;28;20492;-73
2022/07/22 01:29:23;;;;;;;40.40;38.20;;;;;;;24.30;40.14;102035.97;5066561;28;20028;-73
2022/07/22 01:31:49;;;;;;;41.63;39.45;;;;;;;24.29;40.18;102033.50;5065197;28;20040;-73
2022/07/22 01:34:14;;;;;;;41.67;39.53;;;;;;;24.27;39.79;102036.56;5062256;28;20119;-73
2022/07/22 01:36:39;;;;;;;41.67;39.30;;;;;;;24.28;40.00;102038.19;5066352;28;20119;-73
2022/07/22 01:39:05;;;;;;;40.70;38.72;;;;;;;24.27;39.61;102035.75;5064008;28;20036;-73
2022/07/22 01:41:31;;;;;;;42.05;39.85;;;;;;;24.26;39.74;102037.69;5064999;28;20124;-72
2022/07/22 01:43:56;;;;;;;40.97;38.78;;;;;;;24.25;40.21;102040.75;5061693;28;20056;-73
2022/07/22 01:46:23;;;;;;;41.10;38.90;;;;;;;24.25;39.74;102040.75;5068765;28;20115;-73
2022/07/22 01:48:49;;;;;;;41.90;39.60;;;;;;;24.23;39.70;102032.78;5062591;28;20481;-73
2022/07/22 01:51:15;;;;;;;39.65;37.65;;;;;;;24.23;39.95;102031.97;5065258;28;20502;-73
2022/07/22 01:53:40;;;;;;;45.85;43.35;;;;;;;24.23;39.80;102026.44;5066740;28;20111;-73
2022/07/22 01:56:06;;;;;;;40.90;38.60;;;;;;;24.22;39.63;102033.06;5066003;28;20405;-73
2022/07/22 01:58:32;;;;;;;40.70;38.67;;;;;;;24.21;39.81;102023.97;5067264;28;20044;-73
2022/07/22 02:00:57;;;;;;;41.42;39.42;;;;;;;24.20;39.82;102025.09;5068009;28;20037;-73
2022/07/22 02:03:22;;;;;;;41.63;39.53;;;;;;;24.18;40.19;102017.09;5072392;28;20546;-73
2022/07/22 02:05:49;;;;;;;41.65;39.55;;;;;;;24.17;39.83;102025.72;5062292;28;20064;-73
2022/07/22 02:08:14;;;;;;;40.53;38.53;;;;;;;24.17;39.62;102025.72;5055608;28;20405;-73
2022/07/22 02:10:40;;;;;;;42.00;39.70;;;;;;;24.15;39.73;102020.47;5055533;28;20029;-73
2022/07/22 02:13:05;;;;;;;41.85;39.35;;;;;;;24.15;40.31;102017.72;5068066;28;20037;-73
2022/07/22 02:15:31;;;;;;;41.72;39.33;;;;;;;24.14;39.86;102018.00;5059455;28;20588;-73
2022/07/22 02:17:57;;;;;;;41.45;39.35;;;;;;;24.13;40.13;102017.19;5055129;28;20029;-73
2022/07/22 02:20:23;;;;;;;42.67;40.55;;;;;;;24.12;40.30;102017.53;5063509;28;20090;-73
2022/07/22 02:22:49;;;;;;;40.45;38.35;;;;;;;24.11;40.31;102013.09;5063116;28;20031;-73
2022/07/22 02:25:14;;;;;;;40.97;38.58;;;;;;;24.10;40.15;102011.50;5056452;28;20029;-73
2022/07/22 02:27:41;;;;;;;41.08;38.63;;;;;;;24.09;40.09;102018.09;5063935;28;20036;-72
2022/07/22 02:30:07;;;;;;;43.60;41.40;;;;;;;24.08;39.90;102011.78;5058118;28;20493;-72
2022/07/22 02:32:33;;;;;;;39.95;37.85;;;;;;;24.08;39.78;102010.97;5055441;28;20025;-73
2022/07/22 02:34:58;;;;;;;42.53;40.45;;;;;;;24.07;40.20;102012.91;5062134;28;20048;-72
2022/07/22 02:37:24;;;;;;;40.05;37.90;;;;;;;24.07;40.00;102014.84;5072145;28;20040;-73
2022/07/22 02:39:49;;;;;;;44.35;41.83;;;;;;;24.05;40.20;102006.88;5059032;28;20040;-72
2022/07/22 02:42:15;;;;;;;39.40;37.30;;;;;;;24.04;39.85;102004.41;5054834;28;20033;-73
2022/07/22 02:44:40;;;;;;;39.63;37.58;;;;;;;24.04;40.20;101996.97;5056427;28;20106;-73
2022/07/22 02:47:06;;;;;;;41.72;39.55;;;;;;;24.03;39.83;101997.25;5068260;28;20053;-73
2022/07/22 02:49:31;;;;;;;43.65;41.08;;;;;;;24.02;39.88;101998.38;5060699;28;20036;-73
2022/07/22 02:51:56;;;;;;;42.08;39.97;;;;;;;24.01;40.28;101999.50;5063178;28;20043;-72
2022/07/22 02:54:22;;;;;;;40.17;38.17;;;;;;;24.00;40.16;101993.16;5073373;28;20037;-73
2022/07/22 02:56:47;;;;;;;40.08;37.97;;;;;;;23.98;39.82;101993.44;5066114;28;20044;-73
2022/07/22 02:59:12;;;;;;;41.25;38.75;;;;;;;23.97;39.92;101991.00;5054970;28;20086;-73
2022/07/22 03:01:38;;;;;;;41.28;39.08;;;;;;;23.97;40.30;101991.00;5064089;28;20033;-72
2022/07/22 03:04:03;;;;;;;40.22;38.13;;;;;;;23.96;39.93;101981.09;5064149;28;20044;-72
2022/07/22 03:06:29;;;;;;;40.50;38.28;;;;;;;23.95;39.71;101996.00;5063886;28;20532;-72
2022/07/22 03:08:54;;;;;;;41.60;39.33;;;;;;;23.95;40.38;101993.25;5054220;28;20439;-72
2022/07/22 03:11:20;;;;;;;41.90;39.70;;;;;;;23.94;40.28;101983.34;5053730;28;20051;-72
2022/07/22 03:13:45;;;;;;;40.58;38.50;;;;;;;23.92;40.13;101991.91;5054282;28;20029;-73
2022/07/22 03:16:11;;;;;;;41.45;39.35;;;;;;;23.91;39.98;101987.53;5056979;28;20032;-72
2022/07/22 03:18:36;;;;;;;43.15;40.63;;;;;;;23.90;40.35;101988.63;5056424;28;20041;-72
2022/07/22 03:21:02;;;;;;;40.42;38.25;;;;;;;23.89;39.86;101987.00;5065717;28;20424;-71
2022/07/22 03:23:27;;;;;;;40.05;37.92;;;;;;;23.88;39.88;101982.59;5054592;28;20040;-72
2022/07/22 03:25:52;;;;;;;40.38;38.20;;;;;;;23.89;39.81;101991.69;5054014;28;20086;-72
2022/07/22 03:28:18;;;;;;;41.03;38.92;;;;;;;23.87;39.93;101991.19;5067966;28;20474;-71
2022/07/22 03:30:43;;;;;;;40.88;38.65;;;;;;;23.85;40.13;101994.25;5073729;28;20055;-72
2022/07/22 03:33:08;;;;;;;39.90;37.83;;;;;;;23.84;40.43;101987.09;5073406;28;20041;-72
2022/07/22 03:35:34;;;;;;;39.72;37.53;;;;;;;23.83;39.95;101990.97;5072736;28;20086;-72
2022/07/22 03:37:59;;;;;;;41.88;39.78;;;;;;;23.83;39.92;102001.19;5067718;28;20040;-71
2022/07/22 03:40:24;;;;;;;40.33;38.22;;;;;;;23.82;40.39;102008.66;5069227;28;20123;-71
2022/07/22 03:42:50;;;;;;;41.70;39.42;;;;;;;23.80;39.95;101997.09;5058007;28;20393;-72
2022/07/22 03:45:15;;;;;;;39.13;37.22;;;;;;;23.80;39.96;102005.38;5067120;28;20042;-72
2022/07/22 03:47:41;;;;;;;40.30;38.20;;;;;;;23.78;40.11;101999.34;5073575;28;20029;-72
2022/07/22 03:50:07;;;;;;;40.45;38.45;;;;;;;23.76;40.41;101993.28;5063099;28;20037;-72
2022/07/22 03:52:32;;;;;;;39.88;37.78;;;;;;;23.76;39.98;102007.09;5053399;28;20037;-72
2022/07/22 03:54:58;;;;;;;42.75;40.55;;;;;;;23.75;40.43;102011.78;5057866;28;20123;-71
2022/07/22 03:57:23;;;;;;;40.10;38.00;;;;;;;23.74;40.42;102004.66;5054158;28;20056;-72
2022/07/22 03:59:49;;;;;;;39.63;37.63;;;;;;;23.73;39.82;102008.50;5062205;28;20036;-71
2022/07/22 04:02:14;;;;;;;40.75;38.67;;;;;;;23.73;40.26;102002.19;5053741;28;20033;-72
2022/07/22 04:04:40;;;;;;;40.53;38.53;;;;;;;23.72;40.39;102011.56;5067578;28;20135;-72
2022/07/22 04:07:05;;;;;;;40.97;38.42;;;;;;;23.70;40.26;102009.09;5053348;28;20782;-73
2022/07/22 04:09:30;;;;;;;39.55;37.65;;;;;;;23.69;40.19;101999.19;5054651;28;20119;-72
2022/07/22 04:11:56;;;;;;;41.50;39.22;;;;;;;23.68;40.10;102002.22;5063268;28;20064;-72
2022/07/22 04:14:21;;;;;;;40.15;37.85;;;;;;;23.67;40.54;102009.69;5054629;28;20033;-73
2022/07/22 04:16:47;;;;;;;39.17;37.28;;;;;;;23.66;39.84;101999.78;5070725;28;20037;-72
2022/07/22 04:19:13;;;;;;;39.47;37.47;;;;;;;23.65;40.40;102003.66;5071847;28;20036;-72
2022/07/22 04:21:39;;;;;;;38.78;36.58;;;;;;;23.64;40.14;102002.03;5069600;28;20554;-72
2022/07/22 04:24:05;;;;;;;41.00;38.83;;;;;;;23.64;39.92;102007.53;5059250;28;20456;-72
2022/07/22 04:26:30;;;;;;;40.28;38.00;;;;;;;23.63;40.39;102002.31;5061683;28;20086;-72
2022/07/22 04:28:56;;;;;;;39.97;37.70;;;;;;;23.61;40.09;101999.88;5067702;28;20037;-72
2022/07/22 04:31:21;;;;;;;41.55;39.25;;;;;;;23.62;40.00;102000.69;5056416;28;20129;-71
2022/07/22 04:33:46;;;;;;;37.83;35.83;;;;;;;23.60;40.24;102000.97;5058198;28;20042;-72
2022/07/22 04:36:12;;;;;;;37.80;35.90;;;;;;;23.58;40.28;101994.94;5058107;28;20032;-72
2022/07/22 04:38:37;;;;;;;40.42;38.42;;;;;;;23.58;40.29;101999.63;5071474;28;20035;-72
2022/07/22 04:41:03;;;;;;;41.13;38.95;;;;;;;23.57;40.39;101995.25;5071944;28;20064;-72
2022/07/22 04:43:28;;;;;;;40.70;38.60;;;;;;;23.55;40.30;101996.34;5072019;28;20040;-73
2022/07/22 04:45:55;;;;;;;40.53;38.42;;;;;;;23.55;39.95;101992.78;5066674;28;20029;-73
2022/07/22 04:48:20;;;;;;;40.13;37.92;;;;;;;23.54;39.91;101988.41;5054147;28;20431;-72
2022/07/22 04:50:45;;;;;;;40.30;38.10;;;;;;;23.53;40.25;101986.75;5059250;28;20461;-72
2022/07/22 04:53:11;;;;;;;40.67;38.40;;;;;;;23.51;39.88;101984.31;5055881;28;20499;-72
2022/07/22 04:55:36;;;;;;;41.97;39.90;;;;;;;23.50;40.18;101985.41;5068126;28;20378;-72
2022/07/22 04:58:02;;;;;;;39.80;37.80;;;;;;;23.49;40.34;101983.78;5071551;28;20477;-71
2022/07/22 05:00:27;;;;;;;39.60;37.60;;;;;;;23.49;40.16;101981.03;5059077;28;20476;-72
2022/07/22 05:02:53;;;;;;;41.08;39.08;;;;;;;23.48;40.35;101975.78;5052722;28;20029;-72
2022/07/22 05:05:18;;;;;;;39.47;37.38;;;;;;;23.46;39.97;101976.13;5054855;28;20056;-72
2022/07/22 05:07:44;;;;;;;38.63;36.53;;;;;;;23.46;40.54;101983.53;5070684;28;20090;-72
2022/07/22 05:10:09;;;;;;;40.17;38.17;;;;;;;23.45;40.01;101982.72;5071417;28;20041;-72
2022/07/22 05:12:35;;;;;;;38.45;36.55;;;;;;;23.45;39.98;101981.91;5058326;28;20071;-73
2022/07/22 05:15:01;;;;;;;38.92;36.78;;;;;;;23.44;39.89;101980.28;5062376;28;20099;-72
2022/07/22 05:17:26;;;;;;;39.58;37.47;;;;;;;23.43;40.38;101984.97;5058742;28;20047;-72
2022/07/22 05:19:52;;;;;;;38.65;36.65;;;;;;;23.43;39.89;101984.16;5039528;28;20131;-73
2022/07/22 05:22:17;;;;;;;41.40;39.20;;;;;;;23.42;39.95;101979.75;5056003;28;20102;-72
2022/07/22 05:24:42;;;;;;;38.92;36.92;;;;;;;23.41;40.37;101987.22;5052329;28;20064;-73
2022/07/22 05:27:08;;;;;;;39.63;37.47;;;;;;;23.40;40.19;101988.31;5059446;28;20074;-72
2022/07/22 05:29:33;;;;;;;37.63;35.63;;;;;;;23.39;40.02;101992.22;5057707;28;20029;-72
2022/07/22 05:31:59;;;;;;;38.10;36.20;;;;;;;23.40;40.50;101998.53;5052237;28;20507;-73
2022/07/22 05:34:24;;;;;;;41.33;39.33;;;;;;;23.40;40.28;102002.09;5054954;28;20033;-72
2022/07/22 05:36:49;;;;;;;37.45;35.45;;;;;;;23.39;40.19;102002.44;5054865;28;20047;-72
2022/07/22 05:39:15;;;;;;;39.42;37.33;;;;;;;23.38;40.39;101996.06;5067617;28;20037;-72
2022/07/22 05:41:40;;;;;;;38.30;36.35;;;;;;;23.38;40.46;101998.00;5071688;28;20029;-72
2022/07/22 05:44:06;;;;;;;38.72;36.42;;;;;;;23.37;40.07;101988.94;5060701;28;20113;-72
2022/07/22 05:46:31;;;;;;;38.72;36.50;;;;;;;23.37;39.97;101994.44;5052151;28;20060;-72
2022/07/22 05:48:57;;;;;;;38.75;36.65;;;;;;;23.38;40.34;101998.00;5061116;28;20033;-72
2022/07/22 05:51:22;;;;;;;37.92;35.92;;;;;;;23.37;40.30;102002.72;5057440;28;20032;-72
2022/07/22 05:53:49;;;;;;;39.83;37.63;;;;;;;23.38;39.95;101998.00;5056603;28;20041;-72
2022/07/22 05:56:14;;;;;;;39.03;37.03;;;;;;;23.36;39.91;101991.97;5054220;28;20063;-72
2022/07/22 05:58:41;;;;;;;40.67;38.65;;;;;;;23.36;40.41;101997.50;5065979;28;20040;-72
2022/07/22 06:01:07;;;;;;;38.80;36.67;;;;;;;23.35;40.34;101999.44;5053980;28;20025;-72
2022/07/22 06:03:33;;;;;;;37.72;35.63;;;;;;;23.35;40.55;101977.38;5066168;28;20029;-72
2022/07/22 06:05:58;;;;;;;37.47;35.60;;;;;;;23.35;40.00;101991.16;5051690;28;20067;-72
2022/07/22 06:08:24;;;;;;;39.70;37.60;;;;;;;23.35;40.21;101979.31;5066247;28;20040;-72
2022/07/22 06:10:49;;;;;;;37.90;35.95;;;;;;;23.34;40.55;101973.00;5070319;28;20041;-71
2022/07/22 06:13:14;;;;;;;39.42;37.20;;;;;;;23.36;39.98;101989.22;5070012;28;20516;-72
2022/07/22 06:15:40;;;;;;;39.63;37.63;;;;;;;23.33;40.24;101988.72;5071464;28;20024;-72
2022/07/22 06:18:06;;;;;;;39.17;37.08;;;;;;;23.34;40.23;101989.53;5068437;28;20500;-72
2022/07/22 06:20:31;;;;;;;38.60;36.60;;;;;;;23.34;40.16;101995.03;5069294;28;20527;-72
2022/07/22 06:22:56;;;;;;;39.75;37.75;;;;;;;23.35;39.93;101993.09;5051826;28;20370;-72
2022/07/22 06:25:22;;;;;;;39.33;37.33;;;;;;;23.35;40.35;101990.34;5051332;28;20472;-73
2022/07/22 06:27:47;;;;;;;37.90;36.03;;;;;;;23.33;40.04;101983.22;5065884;28;20053;-73
2022/07/22 06:30:13;;;;;;;38.75;36.75;;;;;;;23.33;40.23;101982.38;5051029;28;20040;-72
2022/07/22 06:32:38;;;;;;;41.47;39.10;;;;;;;23.34;40.46;101986.78;5066464;28;20039;-73
2022/07/22 06:35:04;;;;;;;37.95;35.88;;;;;;;23.33;40.41;101985.97;5062327;28;20036;-73
2022/07/22 06:37:29;;;;;;;37.20;35.25;;;;;;;23.33;40.43;101988.72;5051197;28;20052;-72
2022/07/22 06:39:55;;;;;;;38.63;36.33;;;;;;;23.34;40.04;101984.03;5054251;28;20037;-73
2022/07/22 06:42:22;;;;;;;38.95;36.90;;;;;;;23.33;40.51;101987.88;5056896;28;20037;-73
2022/07/22 06:44:47;;;;;;;39.20;36.38;;;;;;;23.34;40.30;101992.28;5051517;28;20070;-72
2022/07/22 06:47:13;;;;;;;38.45;36.60;;;;;;;23.34;40.08;101997.81;5052094;28;20122;-72
2022/07/22 06:49:38;;;;;;;38.75;36.85;;;;;;;23.35;40.08;101998.63;5058001;28;20041;-72
2022/07/22 06:52:04;;;;;;;38.58;36.47;;;;;;;23.35;40.30;101995.84;5069520;28;20457;-72
2022/07/22 06:54:29;;;;;;;40.20;38.10;;;;;;;23.36;40.50;101997.50;5074178;28;20480;-72
2022/07/22 06:56:54;;;;;;;38.35;36.35;;;;;;;23.36;40.47;101986.47;5061522;28;20037;-73
2022/07/22 06:59:20;;;;;;;39.80;37.65;;;;;;;23.35;40.17;101985.66;5059953;28;20131;-71
2022/07/22 07:01:45;;;;;;;38.85;36.92;;;;;;;23.36;40.10;101978.19;5056143;28;20425;-73
2022/07/22 07:04:10;;;;;;;37.75;35.85;;;;;;;23.37;40.18;101986.16;5070398;28;20040;-72
2022/07/22 07:06:36;;;;;;;38.45;36.55;;;;;;;23.38;40.38;101978.72;5072435;28;20036;-72
2022/07/22 07:09:02;;;;;;;37.50;35.60;;;;;;;23.37;40.39;101980.66;5059079;28;20025;-73
2022/07/22 07:11:27;;;;;;;39.50;37.10;;;;;;;23.39;40.15;101986.69;5055710;28;20033;-72
2022/07/22 07:13:53;;;;;;;39.88;37.83;;;;;;;23.40;40.16;101971.78;5067856;28;20116;-72
2022/07/22 07:16:18;;;;;;;39.15;37.15;;;;;;;23.41;40.43;101984.47;5073588;28;20078;-72
2022/07/22 07:18:44;;;;;;;38.15;35.95;;;;;;;23.42;40.55;101977.00;5061581;28;20091;-72
2022/07/22 07:21:09;;;;;;;39.92;37.67;;;;;;;23.43;40.17;101976.69;5054759;28;20045;-72
2022/07/22 07:23:34;;;;;;;38.60;36.60;;;;;;;23.44;40.74;101972.81;5067968;28;20081;-72
2022/07/22 07:26:00;;;;;;;39.60;37.60;;;;;;;23.44;40.05;101980.28;5059659;28;20038;-72
2022/07/22 07:28:26;;;;;;;38.60;36.60;;;;;;;23.47;40.55;101976.94;5066405;28;20389;-72
2022/07/22 07:30:51;;;;;;;39.13;36.92;;;;;;;23.47;40.28;101977.75;5054440;28;20074;-73
2022/07/22 07:33:17;;;;;;;39.75;37.67;;;;;;;23.48;40.41;101973.84;5068490;28;20036;-72
2022/07/22 07:35:43;;;;;;;38.80;36.60;;;;;;;23.49;40.60;101977.44;5060637;28;20435;-72
2022/07/22 07:38:08;;;;;;;39.33;37.22;;;;;;;23.50;40.18;101970.81;5059274;28;20059;-72
2022/07/22 07:40:33;;;;;;;41.70;39.20;;;;;;;23.52;40.36;101974.09;5063979;28;20032;-72
2022/07/22 07:42:59;;;;;;;38.13;36.08;;;;;;;23.53;40.51;101972.94;5073635;28;20078;-72
2022/07/22 07:45:24;;;;;;;42.42;39.97;;;;;;;23.54;40.27;101978.19;5064321;28;20434;-73
2022/07/22 07:47:50;;;;;;;39.70;37.50;;;;;;;23.56;40.57;101969.59;5057870;28;20032;-72
2022/07/22 07:50:15;;;;;;;39.22;36.92;;;;;;;23.57;40.32;101974.00;5054261;28;20113;-72
2022/07/22 07:52:47;;;;;;;40.80;38.53;;;;;;;23.58;40.58;101967.34;5053506;28;20033;-72
2022/07/22 07:55:13;;;;;;;39.72;37.53;;;;;;;23.59;40.10;101969.00;5064557;28;20064;-73
2022/07/22 07:57:39;;;;;;;38.95;36.85;;;;;;;23.61;40.40;101965.94;5058821;28;20036;-72
2022/07/22 08:00:08;;;;;;;40.30;38.30;;;;;;;23.62;39.99;101960.13;5073338;28;20028;-72
2022/07/22 08:02:33;;;;;;;39.60;37.60;;;;;;;23.63;39.98;101959.00;5073470;28;20086;-72
2022/07/22 08:04:59;;;;;;;38.22;36.22;;;;;;;23.65;40.32;101956.75;5071750;28;20025;-73
2022/07/22 08:07:25;;;;;;;40.15;38.08;;;;;;;23.66;40.40;101961.16;5071641;28;20488;-72
2022/07/22 08:09:50;;;;;;;39.30;37.30;;;;;;;23.69;40.03;101968.03;5070977;28;20495;-72
2022/07/22 08:12:16;;;;;;;38.40;36.30;;;;;;;23.70;40.04;101959.44;5069285;28;20036;-74
2022/07/22 08:14:41;;;;;;;40.03;37.85;;;;;;;23.71;40.08;101963.84;5072163;28;20029;-73
2022/07/22 08:17:07;;;;;;;40.55;38.45;;;;;;;23.74;40.34;101963.25;5064122;28;20033;-72
2022/07/22 08:19:33;;;;;;;41.83;39.50;;;;;;;23.77;40.14;101964.59;5052609;28;20044;-73
2022/07/22 08:21:58;;;;;;;40.90;38.75;;;;;;;23.81;40.12;101965.59;5052895;28;20032;-73
2022/07/22 08:24:23;;;;;;;40.38;38.28;;;;;;;23.82;40.14;101970.03;5060638;28;20465;-73
2022/07/22 08:26:49;;;;;;;40.60;38.42;;;;;;;23.85;40.24;101968.59;5052673;28;20025;-73
2022/07/22 08:29:14;;;;;;;40.58;38.58;;;;;;;23.87;40.03;101964.41;5052672;28;20033;-73
2022/07/22 08:31:40;;;;;;;41.92;39.72;;;;;;;23.89;40.12;101962.19;5051145;28;20040;-73
2022/07/22 08:34:05;;;;;;;42.33;39.75;;;;;;;23.93;39.96;101948.56;5059143;28;20033;-72
2022/07/22 08:36:31;;;;;;;42.47;40.17;;;;;;;23.95;39.99;101951.84;5061100;28;20032;-72
2022/07/22 08:38:56;;;;;;;41.28;39.17;;;;;;;23.96;40.48;101948.81;5066777;28;20492;-72
2022/07/22 08:41:23;;;;;;;40.83;38.83;;;;;;;24.00;40.18;101945.44;5059175;28;20110;-72
2022/07/22 08:43:50;;;;;;;41.35;39.35;;;;;;;24.02;39.87;101949.53;5051936;28;20036;-72
2022/07/22 08:46:15;;;;;;;41.90;39.60;;;;;;;24.05;40.15;101951.66;5064923;28;20040;-72
2022/07/22 08:48:41;;;;;;;42.75;40.53;;;;;;;24.07;40.31;101945.84;5071537;28;20039;-72
2022/07/22 08:51:07;;;;;;;41.60;39.50;;;;;;;24.09;40.45;101952.72;5072079;28;20032;-72
2022/07/22 08:53:32;;;;;;;42.13;39.85;;;;;;;24.12;40.32;101951.28;5070068;28;20500;-73
2022/07/22 08:56:01;;;;;;;43.03;40.88;;;;;;;24.15;39.90;101951.47;5057032;28;20082;-74
2022/07/22 08:58:26;;;;;;;41.47;39.47;;;;;;;24.18;40.32;101944.53;5067623;28;20050;-74
2022/07/22 09:01:15;;;;;;;42.20;39.90;;;;;;;24.18;40.10;101950.03;5067017;28;20033;-74
2022/07/22 09:03:49;;;;;;;43.45;41.20;;;;;;;24.21;39.96;101938.38;5051964;28;20051;-74
2022/07/22 09:06:19;;;;;;;42.95;40.38;;;;;;;24.25;39.83;101946.88;5052039;28;20377;-74
2022/07/22 09:08:59;;;;;;;43.30;41.10;;;;;;;24.26;40.49;101951.28;5056215;28;20060;-74
2022/07/22 09:11:26;;;;;;;41.58;39.53;;;;;;;24.30;39.95;101947.59;5060787;28;20040;-73
2022/07/22 09:13:52;;;;;;;43.22;40.92;;;;;;;24.33;39.84;101959.97;5057150;28;20048;-73
2022/07/22 09:16:38;;;;;;;41.53;39.33;;;;;;;24.33;40.42;101949.75;5053231;28;20381;-73
2022/07/22 09:19:03;;;;;;;42.65;40.35;;;;;;;24.40;39.92;101943.81;5057579;28;20040;-73
2022/07/22 09:21:30;;;;;;;43.25;40.95;;;;;;;24.43;39.90;101945.16;5050418;28;20079;-73
2022/07/22 09:23:55;;;;;;;43.13;40.92;;;;;;;24.46;40.15;101944.56;5058423;28;20036;-73
2022/07/22 09:26:38;;;;;;;42.90;40.58;;;;;;;24.48;40.27;101943.13;5069854;28;20036;-73
2022/07/22 09:29:06;;;;;;;43.78;41.38;;;;;;;24.52;39.88;101929.50;5058162;28;20040;-74
2022/07/22 09:31:36;;;;;;;42.85;40.67;;;;;;;24.53;40.43;101942.19;5061967;28;20045;-72
2022/07/22 09:34:03;;;;;;;42.63;40.22;;;;;;;24.57;40.36;101934.94;5052110;28;20710;-72
2022/07/22 09:36:28;;;;;;;42.58;40.40;;;;;;;24.59;40.28;101924.38;5051397;28;20060;-72
2022/07/22 09:38:54;;;;;;;42.97;40.78;;;;;;;24.62;40.24;101929.31;5053543;28;20324;-72
2022/07/22 09:41:20;;;;;;;43.75;41.45;;;;;;;24.66;40.21;101930.31;5063938;28;20589;-72
2022/07/22 09:43:46;;;;;;;46.75;44.00;;;;;;;24.69;40.04;101937.16;5049745;28;20029;-72
2022/07/22 09:46:12;;;;;;;44.17;41.60;;;;;;;24.72;40.25;101933.78;5068659;28;20411;-72
2022/07/22 09:48:38;;;;;;;45.13;42.67;;;;;;;24.74;40.28;101928.75;5073131;28;20109;-72
2022/07/22 09:51:05;;;;;;;46.05;43.78;;;;;;;24.77;40.18;101928.13;5050937;28;20029;-72
2022/07/22 09:53:31;;;;;;;43.42;41.22;;;;;;;24.79;39.75;101931.41;5050801;28;20064;-72
2022/07/22 09:56:03;;;;;;;44.47;42.28;;;;;;;24.83;40.22;101929.66;5049604;28;20025;-72
2022/07/22 09:58:30;;;;;;;44.75;42.35;;;;;;;24.86;39.95;101925.47;5052678;28;20079;-72
2022/07/22 10:00:59;;;;;;;43.28;41.08;;;;;;;24.89;40.21;101931.19;5050334;28;20461;-71
2022/07/22 10:03:31;;;;;;;44.95;42.65;;;;;;;24.92;39.83;101938.88;5050842;28;20035;-72
2022/07/22 10:05:57;;;;;;;45.75;43.35;;;;;;;24.95;40.09;101949.28;5064291;28;20028;-72
2022/07/22 10:08:25;;;;;;;47.88;45.13;;;;;;;24.96;39.63;101948.16;5058611;28;20025;-72
2022/07/22 10:10:52;;;;;;;45.05;42.65;;;;;;;25.01;39.53;101953.56;5058854;28;20028;-72
2022/07/22 10:13:18;;;;;;;46.50;44.15;;;;;;;25.04;39.69;101949.34;5064482;28;20024;-72
2022/07/22 10:15:46;;;;;;;48.92;46.22;;;;;;;25.07;39.55;101934.91;5049608;28;20524;-72
2022/07/22 10:18:17;;;;;;;48.88;46.45;;;;;;;25.09;39.47;101929.88;5057466;28;20028;-71
2022/07/22 10:20:43;;;;;;;47.05;44.55;;;;;;;25.13;40.02;101933.69;5068140;28;20021;-72
2022/07/22 10:23:11;;;;;;;45.03;42.63;;;;;;;25.15;39.58;101938.88;5074071;28;20041;-72
2022/07/22 10:25:54;;;;;;;45.63;43.15;;;;;;;25.18;39.49;101932.78;5073006;28;20033;-71
2022/07/22 10:28:27;;;;;;;45.35;43.05;;;;;;;25.21;39.88;101926.59;5072675;28;20055;-72
2022/07/22 10:30:53;;;;;;;46.40;44.00;;;;;;;25.24;39.66;101935.09;5070606;28;20094;-71
2022/07/22 10:33:20;;;;;;;45.88;43.58;;;;;;;25.27;39.97;101936.41;5061156;28;20048;-72
2022/07/22 10:35:54;;;;;;;47.95;45.38;;;;;;;25.30;39.89;101932.19;5056685;28;20032;-72
2022/07/22 10:38:21;;;;;;;47.63;45.22;;;;;;;25.33;39.83;101931.59;5056221;28;20495;-71
2022/07/22 10:40:52;;;;;;;48.33;45.83;;;;;;;25.36;39.85;101936.47;5066221;28;20036;-71
2022/07/22 10:43:23;;;;;;;49.92;47.42;;;;;;;25.39;39.59;101942.19;5072074;28;20371;-73
2022/07/22 10:45:51;;;;;;;48.75;46.13;;;;;;;25.42;39.29;101927.72;5072796;28;20070;-72
2022/07/22 10:48:42;;;;;;;46.75;44.20;;;;;;;25.45;39.24;101918.81;5061114;28;20381;-72
2022/07/22 10:51:07;;;;;;;46.80;44.50;;;;;;;25.50;39.33;101917.84;5042966;28;20055;-72
2022/07/22 10:53:43;;;;;;;45.72;43.42;;;;;;;25.52;39.48;101920.31;5053738;28;20380;-72
2022/07/22 10:56:17;;;;;;;47.95;45.30;;;;;;;25.55;39.59;101914.13;5062563;28;20098;-72
2022/07/22 10:58:48;;;;;;;48.78;46.28;;;;;;;25.58;39.14;101917.13;5053989;28;20028;-72
2022/07/22 11:01:16;;;;;;;47.95;45.25;;;;;;;25.61;39.56;101899.06;5071990;28;20036;-73
2022/07/22 11:03:44;;;;;;;49.85;47.15;;;;;;;25.65;39.12;101905.56;5072269;28;20099;-72
2022/07/22 11:06:19;;;;;;;46.40;44.10;;;;;;;25.67;38.96;101901.34;5058568;28;20039;-72